sensor_id;sensor_type;location;lat;lon;timestamp;P1;durP1;ratioP1;P2;durP2;ratioP2
39864;SDS011;25538;48.392;9.976;2022-09-09T00:00:20;9.40;;;3.65;;
39864;SDS011;25538;48.392;9.976;2022-09-09T00:02:54;6.57;;;3.42;;
39864;SDS011;25538;48.392;9.976;2022-09-09T00:08:18;8.27;;;2.75;;
39864;SDS011;25538;48.392;9.976;2022-09-09T00:10:53;3.70;;;2.50;;
39864;SDS011;25538;48.392;9.976;2022-09-09T00:16:08;3.97;;;2.85;;
39864;SDS011;25538;48.392;9.976;2022-09-09T00:21:49;6.43;;;3.38;;
39864;SDS011;25538;48.392;9.976;2022-09-09T00:27:26;4.50;;;3.88;;
39864;SDS011;25538;48.392;9.976;2022-09-09T00:32:39;4.93;;;3.33;;
39864;SDS011;25538;48.392;9.976;2022-09-09T00:37:50;5.68;;;3.20;;
39864;SDS011;25538;48.392;9.976;2022-09-09T00:40:24;4.00;;;3.15;;
39864;SDS011;25538;48.392;9.976;2022-09-09T00:43:03;4.60;;;3.15;;
39864;SDS011;25538;48.392;9.976;2022-09-09T00:48:22;3.58;;;3.10;;
39864;SDS011;25538;48.392;9.976;2022-09-09T00:51:09;3.90;;;3.50;;
39864;SDS011;25538;48.392;9.976;2022-09-09T00:56:22;6.15;;;3.42;;
39864;SDS011;25538;48.392;9.976;2022-09-09T00:59:05;9.73;;;3.78;;
39864;SDS011;25538;48.392;9.976;2022-09-09T01:01:41;4.97;;;3.72;;
39864;SDS011;25538;48.392;9.976;2022-09-09T01:04:09;5.70;;;3.97;;
39864;SDS011;25538;48.392;9.976;2022-09-09T01:06:41;3.78;;;3.05;;
39864;SDS011;25538;48.392;9.976;2022-09-09T01:12:15;3.88;;;3.47;;
39864;SDS011;25538;48.392;9.976;2022-09-09T01:14:45;5.97;;;3.40;;
39864;SDS011;25538;48.392;9.976;2022-09-09T01:19:55;5.90;;;3.80;;
39864;SDS011;25538;48.392;9.976;2022-09-09T01:27:58;5.63;;;4.20;;
39864;SDS011;25538;48.392;9.976;2022-09-09T01:30:27;6.15;;;3.75;;
39864;SDS011;25538;48.392;9.976;2022-09-09T01:32:55;5.55;;;4.95;;
39864;SDS011;25538;48.392;9.976;2022-09-09T01:38:07;6.68;;;3.90;;
39864;SDS011;25538;48.392;9.976;2022-09-09T01:40:33;5.35;;;4.50;;
39864;SDS011;25538;48.392;9.976;2022-09-09T01:42:59;5.60;;;4.90;;
39864;SDS011;25538;48.392;9.976;2022-09-09T01:45:25;6.55;;;4.60;;
39864;SDS011;25538;48.392;9.976;2022-09-09T01:47:52;4.03;;;3.72;;
39864;SDS011;25538;48.392;9.976;2022-09-09T01:50:18;3.85;;;3.42;;
39864;SDS011;25538;48.392;9.976;2022-09-09T01:52:46;4.70;;;3.92;;
39864;SDS011;25538;48.392;9.976;2022-09-09T01:55:15;4.15;;;2.95;;
39864;SDS011;25538;48.392;9.976;2022-09-09T01:57:44;5.15;;;3.17;;
39864;SDS011;25538;48.392;9.976;2022-09-09T02:00:20;3.08;;;2.22;;
39864;SDS011;25538;48.392;9.976;2022-09-09T02:06:10;3.03;;;2.60;;
39864;SDS011;25538;48.392;9.976;2022-09-09T02:08:48;4.85;;;3.30;;
39864;SDS011;25538;48.392;9.976;2022-09-09T02:11:16;5.05;;;2.95;;
39864;SDS011;25538;48.392;9.976;2022-09-09T02:13:44;4.13;;;2.75;;
39864;SDS011;25538;48.392;9.976;2022-09-09T02:16:14;4.30;;;2.97;;
39864;SDS011;25538;48.392;9.976;2022-09-09T02:19:01;3.20;;;2.78;;
39864;SDS011;25538;48.392;9.976;2022-09-09T02:21:39;2.50;;;2.30;;
39864;SDS011;25538;48.392;9.976;2022-09-09T02:24:09;6.38;;;3.30;;
39864;SDS011;25538;48.392;9.976;2022-09-09T02:26:39;5.53;;;3.35;;
39864;SDS011;25538;48.392;9.976;2022-09-09T02:29:08;3.55;;;2.92;;
39864;SDS011;25538;48.392;9.976;2022-09-09T02:31:38;4.50;;;2.92;;
39864;SDS011;25538;48.392;9.976;2022-09-09T02:34:06;4.25;;;2.50;;
39864;SDS011;25538;48.392;9.976;2022-09-09T02:36:36;3.30;;;2.60;;
39864;SDS011;25538;48.392;9.976;2022-09-09T02:39:05;3.67;;;2.25;;
39864;SDS011;25538;48.392;9.976;2022-09-09T02:41:35;2.53;;;2.35;;
39864;SDS011;25538;48.392;9.976;2022-09-09T02:44:10;2.40;;;2.25;;
39864;SDS011;25538;48.392;9.976;2022-09-09T02:46:42;6.82;;;2.72;;
39864;SDS011;25538;48.392;9.976;2022-09-09T02:54:34;2.22;;;2.00;;
39864;SDS011;25538;48.392;9.976;2022-09-09T02:59:35;2.28;;;2.08;;
39864;SDS011;25538;48.392;9.976;2022-09-09T03:02:02;4.00;;;2.72;;
39864;SDS011;25538;48.392;9.976;2022-09-09T03:04:28;3.13;;;2.80;;
39864;SDS011;25538;48.392;9.976;2022-09-09T03:06:55;4.13;;;3.45;;
39864;SDS011;25538;48.392;9.976;2022-09-09T03:09:22;3.17;;;2.65;;
39864;SDS011;25538;48.392;9.976;2022-09-09T03:11:49;2.92;;;2.72;;
39864;SDS011;25538;48.392;9.976;2022-09-09T03:14:15;4.20;;;3.80;;
39864;SDS011;25538;48.392;9.976;2022-09-09T03:16:42;4.60;;;3.88;;
39864;SDS011;25538;48.392;9.976;2022-09-09T03:19:08;3.72;;;3.33;;
39864;SDS011;25538;48.392;9.976;2022-09-09T03:21:34;7.25;;;3.50;;
39864;SDS011;25538;48.392;9.976;2022-09-09T03:24:01;9.30;;;3.63;;
39864;SDS011;25538;48.392;9.976;2022-09-09T03:26:29;3.65;;;3.35;;
39864;SDS011;25538;48.392;9.976;2022-09-09T03:28:55;6.13;;;3.17;;
39864;SDS011;25538;48.392;9.976;2022-09-09T03:31:22;3.20;;;2.65;;
39864;SDS011;25538;48.392;9.976;2022-09-09T03:33:48;3.88;;;2.85;;
39864;SDS011;25538;48.392;9.976;2022-09-09T03:36:14;5.43;;;2.60;;
39864;SDS011;25538;48.392;9.976;2022-09-09T03:38:40;5.35;;;2.40;;
39864;SDS011;25538;48.392;9.976;2022-09-09T03:41:06;3.00;;;2.42;;
39864;SDS011;25538;48.392;9.976;2022-09-09T03:43:33;4.93;;;3.50;;
39864;SDS011;25538;48.392;9.976;2022-09-09T03:45:59;3.45;;;2.65;;
39864;SDS011;25538;48.392;9.976;2022-09-09T03:48:25;3.78;;;2.20;;
39864;SDS011;25538;48.392;9.976;2022-09-09T03:50:53;4.78;;;2.55;;
39864;SDS011;25538;48.392;9.976;2022-09-09T03:53:21;4.18;;;2.35;;
39864;SDS011;25538;48.392;9.976;2022-09-09T03:55:49;3.45;;;3.10;;
39864;SDS011;25538;48.392;9.976;2022-09-09T03:58:20;5.47;;;3.40;;
39864;SDS011;25538;48.392;9.976;2022-09-09T04:03:22;3.35;;;3.10;;
39864;SDS011;25538;48.392;9.976;2022-09-09T04:05:52;4.13;;;3.10;;
39864;SDS011;25538;48.392;9.976;2022-09-09T04:08:20;5.65;;;2.78;;
39864;SDS011;25538;48.392;9.976;2022-09-09T04:10:49;3.13;;;2.83;;
39864;SDS011;25538;48.392;9.976;2022-09-09T04:13:16;4.45;;;2.33;;
39864;SDS011;25538;48.392;9.976;2022-09-09T04:15:44;4.70;;;3.05;;
39864;SDS011;25538;48.392;9.976;2022-09-09T04:18:15;3.47;;;3.17;;
39864;SDS011;25538;48.392;9.976;2022-09-09T04:20:41;4.07;;;3.20;;
39864;SDS011;25538;48.392;9.976;2022-09-09T04:23:08;5.13;;;3.45;;
39864;SDS011;25538;48.392;9.976;2022-09-09T04:25:34;5.00;;;3.45;;
39864;SDS011;25538;48.392;9.976;2022-09-09T04:28:00;4.13;;;3.70;;
39864;SDS011;25538;48.392;9.976;2022-09-09T04:30:27;3.50;;;3.10;;
39864;SDS011;25538;48.392;9.976;2022-09-09T04:32:53;5.27;;;3.47;;
39864;SDS011;25538;48.392;9.976;2022-09-09T04:35:19;3.30;;;3.00;;
39864;SDS011;25538;48.392;9.976;2022-09-09T04:37:45;2.27;;;2.17;;
39864;SDS011;25538;48.392;9.976;2022-09-09T04:40:11;2.63;;;2.15;;
39864;SDS011;25538;48.392;9.976;2022-09-09T04:42:37;2.73;;;2.53;;
39864;SDS011;25538;48.392;9.976;2022-09-09T04:45:05;8.93;;;3.45;;
39864;SDS011;25538;48.392;9.976;2022-09-09T04:47:32;4.75;;;3.20;;
39864;SDS011;25538;48.392;9.976;2022-09-09T04:49:59;5.03;;;3.47;;
39864;SDS011;25538;48.392;9.976;2022-09-09T04:52:25;8.00;;;3.38;;
39864;SDS011;25538;48.392;9.976;2022-09-09T04:54:51;3.53;;;3.20;;
39864;SDS011;25538;48.392;9.976;2022-09-09T04:57:19;4.63;;;3.55;;
39864;SDS011;25538;48.392;9.976;2022-09-09T04:59:45;4.88;;;3.10;;
39864;SDS011;25538;48.392;9.976;2022-09-09T05:02:11;3.23;;;2.93;;
39864;SDS011;25538;48.392;9.976;2022-09-09T05:04:37;6.30;;;3.28;;
39864;SDS011;25538;48.392;9.976;2022-09-09T05:07:03;4.53;;;3.60;;
39864;SDS011;25538;48.392;9.976;2022-09-09T05:09:29;3.17;;;2.87;;
39864;SDS011;25538;48.392;9.976;2022-09-09T05:11:55;5.00;;;4.22;;
39864;SDS011;25538;48.392;9.976;2022-09-09T05:14:21;7.17;;;4.27;;
39864;SDS011;25538;48.392;9.976;2022-09-09T05:16:47;5.22;;;3.80;;
39864;SDS011;25538;48.392;9.976;2022-09-09T05:19:15;4.40;;;3.00;;
39864;SDS011;25538;48.392;9.976;2022-09-09T05:21:44;5.05;;;3.20;;
39864;SDS011;25538;48.392;9.976;2022-09-09T05:24:10;4.00;;;3.70;;
39864;SDS011;25538;48.392;9.976;2022-09-09T05:26:36;4.23;;;3.83;;
39864;SDS011;25538;48.392;9.976;2022-09-09T05:29:02;4.23;;;3.93;;
39864;SDS011;25538;48.392;9.976;2022-09-09T05:31:29;4.68;;;4.28;;
39864;SDS011;25538;48.392;9.976;2022-09-09T05:33:56;8.25;;;4.75;;
39864;SDS011;25538;48.392;9.976;2022-09-09T05:36:22;7.87;;;4.97;;
39864;SDS011;25538;48.392;9.976;2022-09-09T05:38:48;6.47;;;4.85;;
39864;SDS011;25538;48.392;9.976;2022-09-09T05:41:15;10.50;;;5.43;;
39864;SDS011;25538;48.392;9.976;2022-09-09T05:43:42;8.13;;;5.65;;
39864;SDS011;25538;48.392;9.976;2022-09-09T05:46:10;6.57;;;5.25;;
39864;SDS011;25538;48.392;9.976;2022-09-09T05:48:38;5.80;;;4.75;;
39864;SDS011;25538;48.392;9.976;2022-09-09T05:51:06;5.50;;;5.10;;
39864;SDS011;25538;48.392;9.976;2022-09-09T05:53:35;5.70;;;5.20;;
39864;SDS011;25538;48.392;9.976;2022-09-09T05:56:08;8.13;;;5.05;;
39864;SDS011;25538;48.392;9.976;2022-09-09T05:58:39;9.52;;;5.90;;
39864;SDS011;25538;48.392;9.976;2022-09-09T06:01:06;6.30;;;5.70;;
39864;SDS011;25538;48.392;9.976;2022-09-09T06:03:34;6.28;;;5.60;;
39864;SDS011;25538;48.392;9.976;2022-09-09T06:06:02;8.68;;;5.70;;
39864;SDS011;25538;48.392;9.976;2022-09-09T06:08:31;13.27;;;5.10;;
39864;SDS011;25538;48.392;9.976;2022-09-09T06:13:34;6.00;;;4.97;;
39864;SDS011;25538;48.392;9.976;2022-09-09T06:16:00;4.47;;;4.05;;
39864;SDS011;25538;48.392;9.976;2022-09-09T06:18:26;6.60;;;4.65;;
39864;SDS011;25538;48.392;9.976;2022-09-09T06:20:59;4.80;;;3.80;;
39864;SDS011;25538;48.392;9.976;2022-09-09T06:23:29;6.82;;;3.92;;
39864;SDS011;25538;48.392;9.976;2022-09-09T06:28:31;5.38;;;4.47;;
39864;SDS011;25538;48.392;9.976;2022-09-09T06:30:58;4.25;;;3.85;;
39864;SDS011;25538;48.392;9.976;2022-09-09T06:33:25;4.45;;;4.05;;
39864;SDS011;25538;48.392;9.976;2022-09-09T06:35:53;3.70;;;3.35;;
39864;SDS011;25538;48.392;9.976;2022-09-09T06:38:19;5.20;;;4.68;;
39864;SDS011;25538;48.392;9.976;2022-09-09T06:40:53;4.15;;;3.80;;
39864;SDS011;25538;48.392;9.976;2022-09-09T06:43:24;8.32;;;3.88;;
39864;SDS011;25538;48.392;9.976;2022-09-09T06:48:22;9.23;;;3.70;;
39864;SDS011;25538;48.392;9.976;2022-09-09T06:50:51;6.45;;;3.78;;
39864;SDS011;25538;48.392;9.976;2022-09-09T06:53:28;3.67;;;3.38;;
39864;SDS011;25538;48.392;9.976;2022-09-09T06:55:54;3.40;;;3.10;;
39864;SDS011;25538;48.392;9.976;2022-09-09T06:58:20;4.47;;;3.87;;
39864;SDS011;25538;48.392;9.976;2022-09-09T07:00:49;3.15;;;2.78;;
39864;SDS011;25538;48.392;9.976;2022-09-09T07:03:14;3.20;;;2.90;;
39864;SDS011;25538;48.392;9.976;2022-09-09T07:05:40;4.83;;;3.50;;
39864;SDS011;25538;48.392;9.976;2022-09-09T07:08:06;2.63;;;2.43;;
39864;SDS011;25538;48.392;9.976;2022-09-09T07:10:32;3.13;;;2.93;;
39864;SDS011;25538;48.392;9.976;2022-09-09T07:12:59;3.80;;;3.50;;
39864;SDS011;25538;48.392;9.976;2022-09-09T07:15:26;5.25;;;3.45;;
39864;SDS011;25538;48.392;9.976;2022-09-09T07:17:52;3.27;;;2.97;;
39864;SDS011;25538;48.392;9.976;2022-09-09T07:20:19;2.95;;;2.75;;
39864;SDS011;25538;48.392;9.976;2022-09-09T07:22:45;3.72;;;2.75;;
39864;SDS011;25538;48.392;9.976;2022-09-09T07:25:11;3.13;;;2.90;;
39864;SDS011;25538;48.392;9.976;2022-09-09T07:27:37;3.17;;;2.80;;
39864;SDS011;25538;48.392;9.976;2022-09-09T07:30:03;3.40;;;3.10;;
39864;SDS011;25538;48.392;9.976;2022-09-09T07:32:29;4.35;;;2.90;;
39864;SDS011;25538;48.392;9.976;2022-09-09T07:34:56;3.03;;;2.70;;
39864;SDS011;25538;48.392;9.976;2022-09-09T07:37:23;5.93;;;3.30;;
39864;SDS011;25538;48.392;9.976;2022-09-09T07:39:49;3.17;;;2.83;;
39864;SDS011;25538;48.392;9.976;2022-09-09T07:42:16;3.00;;;2.80;;
39864;SDS011;25538;48.392;9.976;2022-09-09T07:44:42;3.13;;;2.83;;
39864;SDS011;25538;48.392;9.976;2022-09-09T07:47:11;2.73;;;2.53;;
39864;SDS011;25538;48.392;9.976;2022-09-09T07:49:37;3.23;;;2.93;;
39864;SDS011;25538;48.392;9.976;2022-09-09T07:52:03;3.37;;;3.00;;
39864;SDS011;25538;48.392;9.976;2022-09-09T07:54:29;2.73;;;2.53;;
39864;SDS011;25538;48.392;9.976;2022-09-09T07:56:54;3.90;;;3.60;;
39864;SDS011;25538;48.392;9.976;2022-09-09T07:59:20;4.30;;;3.90;;
39864;SDS011;25538;48.392;9.976;2022-09-09T08:01:47;3.77;;;3.47;;
39864;SDS011;25538;48.392;9.976;2022-09-09T08:04:18;4.33;;;3.93;;
39864;SDS011;25538;48.392;9.976;2022-09-09T08:06:49;5.47;;;5.10;;
39864;SDS011;25538;48.392;9.976;2022-09-09T08:09:18;5.60;;;5.10;;
39864;SDS011;25538;48.392;9.976;2022-09-09T08:11:44;5.70;;;4.97;;
39864;SDS011;25538;48.392;9.976;2022-09-09T08:14:11;5.67;;;4.17;;
39864;SDS011;25538;48.392;9.976;2022-09-09T08:16:38;3.30;;;3.10;;
39864;SDS011;25538;48.392;9.976;2022-09-09T08:19:05;3.20;;;3.00;;
39864;SDS011;25538;48.392;9.976;2022-09-09T08:21:33;3.33;;;3.00;;
39864;SDS011;25538;48.392;9.976;2022-09-09T08:24:02;4.53;;;3.67;;
39864;SDS011;25538;48.392;9.976;2022-09-09T08:26:31;3.40;;;3.10;;
39864;SDS011;25538;48.392;9.976;2022-09-09T08:29:00;2.80;;;2.57;;
39864;SDS011;25538;48.392;9.976;2022-09-09T08:31:31;3.63;;;3.33;;
39864;SDS011;25538;48.392;9.976;2022-09-09T08:34:03;3.20;;;3.00;;
39864;SDS011;25538;48.392;9.976;2022-09-09T08:36:30;3.13;;;2.83;;
39864;SDS011;25538;48.392;9.976;2022-09-09T08:39:02;2.80;;;2.40;;
39864;SDS011;25538;48.392;9.976;2022-09-09T08:50:35;2.90;;;2.70;;
39864;SDS011;25538;48.392;9.976;2022-09-09T08:55:52;4.93;;;2.40;;
39864;SDS011;25538;48.392;9.976;2022-09-09T09:12:21;3.10;;;2.20;;
39864;SDS011;25538;48.392;9.976;2022-09-09T09:14:50;2.70;;;2.03;;
39864;SDS011;25538;48.392;9.976;2022-09-09T09:17:17;2.67;;;1.90;;
39864;SDS011;25538;48.392;9.976;2022-09-09T09:19:45;2.03;;;1.80;;
39864;SDS011;25538;48.392;9.976;2022-09-09T09:22:19;3.17;;;1.97;;
39864;SDS011;25538;48.392;9.976;2022-09-09T09:27:39;3.77;;;2.57;;
39864;SDS011;25538;48.392;9.976;2022-09-09T09:30:15;3.00;;;1.97;;
39864;SDS011;25538;48.392;9.976;2022-09-09T09:32:53;2.50;;;2.00;;
39864;SDS011;25538;48.392;9.976;2022-09-09T09:35:28;2.70;;;1.90;;
39864;SDS011;25538;48.392;9.976;2022-09-09T09:37:54;2.00;;;1.83;;
39864;SDS011;25538;48.392;9.976;2022-09-09T09:40:21;2.60;;;2.23;;
39864;SDS011;25538;48.392;9.976;2022-09-09T09:42:52;2.33;;;1.80;;
39864;SDS011;25538;48.392;9.976;2022-09-09T09:45:32;3.97;;;1.73;;
39864;SDS011;25538;48.392;9.976;2022-09-09T09:48:11;2.90;;;1.80;;
39864;SDS011;25538;48.392;9.976;2022-09-09T09:50:48;1.70;;;1.40;;
39864;SDS011;25538;48.392;9.976;2022-09-09T09:53:38;2.73;;;1.60;;
39864;SDS011;25538;48.392;9.976;2022-09-09T09:56:05;3.13;;;1.67;;
39864;SDS011;25538;48.392;9.976;2022-09-09T09:58:36;2.70;;;1.50;;
39864;SDS011;25538;48.392;9.976;2022-09-09T10:01:20;1.70;;;1.60;;
39864;SDS011;25538;48.392;9.976;2022-09-09T10:06:46;1.63;;;1.40;;
39864;SDS011;25538;48.392;9.976;2022-09-09T10:15:09;3.30;;;1.40;;
39864;SDS011;25538;48.392;9.976;2022-09-09T10:20:27;3.40;;;1.80;;
39864;SDS011;25538;48.392;9.976;2022-09-09T10:23:02;1.93;;;1.40;;
39864;SDS011;25538;48.392;9.976;2022-09-09T10:36:44;1.80;;;1.17;;
39864;SDS011;25538;48.392;9.976;2022-09-09T10:41:45;1.73;;;1.63;;
39864;SDS011;25538;48.392;9.976;2022-09-09T10:49:57;4.00;;;1.60;;
39864;SDS011;25538;48.392;9.976;2022-09-09T10:55:20;1.83;;;1.60;;
39864;SDS011;25538;48.392;9.976;2022-09-09T10:57:52;3.80;;;1.60;;
39864;SDS011;25538;48.392;9.976;2022-09-09T11:00:30;1.73;;;1.53;;
39864;SDS011;25538;48.392;9.976;2022-09-09T11:03:09;1.07;;;0.97;;
39864;SDS011;25538;48.392;9.976;2022-09-09T11:06:06;1.47;;;1.37;;
39864;SDS011;25538;48.392;9.976;2022-09-09T11:08:38;1.67;;;1.57;;
39864;SDS011;25538;48.392;9.976;2022-09-09T11:19:42;2.40;;;1.10;;
39864;SDS011;25538;48.392;9.976;2022-09-09T11:22:29;6.40;;;2.00;;
39864;SDS011;25538;48.392;9.976;2022-09-09T11:27:31;3.90;;;1.30;;
39864;SDS011;25538;48.392;9.976;2022-09-09T11:30:44;2.43;;;1.17;;
39864;SDS011;25538;48.392;9.976;2022-09-09T11:33:12;1.03;;;0.93;;
39864;SDS011;25538;48.392;9.976;2022-09-09T11:38:49;1.70;;;1.30;;
39864;SDS011;25538;48.392;9.976;2022-09-09T11:41:17;2.93;;;1.23;;
39864;SDS011;25538;48.392;9.976;2022-09-09T11:46:17;3.87;;;1.83;;
39864;SDS011;25538;48.392;9.976;2022-09-09T11:49:00;2.10;;;1.33;;
39864;SDS011;25538;48.392;9.976;2022-09-09T11:51:28;1.73;;;1.20;;
39864;SDS011;25538;48.392;9.976;2022-09-09T11:53:57;1.30;;;1.20;;
39864;SDS011;25538;48.392;9.976;2022-09-09T12:06:52;1.67;;;1.13;;
39864;SDS011;25538;48.392;9.976;2022-09-09T12:09:50;2.13;;;1.53;;
39864;SDS011;25538;48.392;9.976;2022-09-09T12:15:01;1.10;;;1.00;;
39864;SDS011;25538;48.392;9.976;2022-09-09T12:17:37;1.47;;;1.00;;
39864;SDS011;25538;48.392;9.976;2022-09-09T12:20:14;0.80;;;0.70;;
39864;SDS011;25538;48.392;9.976;2022-09-09T12:31:39;1.40;;;0.93;;
39864;SDS011;25538;48.392;9.976;2022-09-09T12:34:35;1.77;;;1.00;;
39864;SDS011;25538;48.392;9.976;2022-09-09T12:37:26;1.83;;;1.00;;
39864;SDS011;25538;48.392;9.976;2022-09-09T12:39:54;2.37;;;1.50;;
39864;SDS011;25538;48.392;9.976;2022-09-09T12:42:24;2.80;;;1.37;;
39864;SDS011;25538;48.392;9.976;2022-09-09T12:47:24;2.07;;;1.20;;
39864;SDS011;25538;48.392;9.976;2022-09-09T12:50:19;1.30;;;1.20;;
39864;SDS011;25538;48.392;9.976;2022-09-09T12:52:47;2.37;;;1.50;;
39864;SDS011;25538;48.392;9.976;2022-09-09T12:55:20;1.23;;;0.90;;
39864;SDS011;25538;48.392;9.976;2022-09-09T12:57:50;1.50;;;1.40;;
39864;SDS011;25538;48.392;9.976;2022-09-09T13:02:49;2.20;;;1.33;;
39864;SDS011;25538;48.392;9.976;2022-09-09T13:05:38;2.00;;;1.10;;
39864;SDS011;25538;48.392;9.976;2022-09-09T13:08:04;3.57;;;1.70;;
39864;SDS011;25538;48.392;9.976;2022-09-09T13:10:34;3.50;;;1.37;;
39864;SDS011;25538;48.392;9.976;2022-09-09T13:13:11;2.30;;;1.40;;
39864;SDS011;25538;48.392;9.976;2022-09-09T13:15:50;1.33;;;1.23;;
39864;SDS011;25538;48.392;9.976;2022-09-09T13:18:21;1.20;;;1.10;;
39864;SDS011;25538;48.392;9.976;2022-09-09T13:20:49;2.40;;;1.50;;
39864;SDS011;25538;48.392;9.976;2022-09-09T13:23:16;1.73;;;1.50;;
39864;SDS011;25538;48.392;9.976;2022-09-09T13:25:52;2.80;;;1.47;;
39864;SDS011;25538;48.392;9.976;2022-09-09T13:28:24;2.00;;;1.80;;
39864;SDS011;25538;48.392;9.976;2022-09-09T13:30:58;1.43;;;1.33;;
39864;SDS011;25538;48.392;9.976;2022-09-09T13:33:32;2.47;;;2.03;;
39864;SDS011;25538;48.392;9.976;2022-09-09T13:36:01;2.70;;;1.30;;
39864;SDS011;25538;48.392;9.976;2022-09-09T13:38:31;1.70;;;1.40;;
39864;SDS011;25538;48.392;9.976;2022-09-09T13:41:21;1.90;;;1.10;;
39864;SDS011;25538;48.392;9.976;2022-09-09T13:43:48;1.17;;;1.10;;
39864;SDS011;25538;48.392;9.976;2022-09-09T13:51:49;1.17;;;1.07;;
39864;SDS011;25538;48.392;9.976;2022-09-09T13:54:18;1.27;;;1.17;;
39864;SDS011;25538;48.392;9.976;2022-09-09T13:56:45;2.40;;;1.00;;
39864;SDS011;25538;48.392;9.976;2022-09-09T13:59:12;2.00;;;1.27;;
39864;SDS011;25538;48.392;9.976;2022-09-09T14:01:46;1.60;;;1.33;;
39864;SDS011;25538;48.392;9.976;2022-09-09T14:04:14;3.93;;;1.50;;
39864;SDS011;25538;48.392;9.976;2022-09-09T14:06:41;1.80;;;1.30;;
39864;SDS011;25538;48.392;9.976;2022-09-09T14:09:12;0.80;;;0.80;;
39864;SDS011;25538;48.392;9.976;2022-09-09T14:11:40;1.00;;;1.00;;
39864;SDS011;25538;48.392;9.976;2022-09-09T14:14:06;1.37;;;1.20;;
39864;SDS011;25538;48.392;9.976;2022-09-09T14:16:32;1.30;;;1.20;;
39864;SDS011;25538;48.392;9.976;2022-09-09T14:18:58;0.97;;;0.90;;
39864;SDS011;25538;48.392;9.976;2022-09-09T14:21:25;1.67;;;1.13;;
39864;SDS011;25538;48.392;9.976;2022-09-09T14:23:51;1.93;;;1.40;;
39864;SDS011;25538;48.392;9.976;2022-09-09T14:26:21;3.63;;;1.60;;
39864;SDS011;25538;48.392;9.976;2022-09-09T14:28:47;1.47;;;1.23;;
39864;SDS011;25538;48.392;9.976;2022-09-09T14:31:13;2.50;;;1.40;;
39864;SDS011;25538;48.392;9.976;2022-09-09T14:33:39;1.50;;;1.20;;
39864;SDS011;25538;48.392;9.976;2022-09-09T14:36:06;1.60;;;1.50;;
39864;SDS011;25538;48.392;9.976;2022-09-09T14:38:33;1.40;;;1.30;;
39864;SDS011;25538;48.392;9.976;2022-09-09T14:41:14;1.70;;;1.53;;
39864;SDS011;25538;48.392;9.976;2022-09-09T14:43:45;1.60;;;1.50;;
39864;SDS011;25538;48.392;9.976;2022-09-09T14:46:12;1.03;;;1.03;;
39864;SDS011;25538;48.392;9.976;2022-09-09T14:48:42;1.07;;;1.00;;
39864;SDS011;25538;48.392;9.976;2022-09-09T14:51:10;1.80;;;1.20;;
39864;SDS011;25538;48.392;9.976;2022-09-09T14:53:41;1.10;;;1.00;;
39864;SDS011;25538;48.392;9.976;2022-09-09T14:56:08;1.20;;;1.10;;
39864;SDS011;25538;48.392;9.976;2022-09-09T14:58:36;1.07;;;1.00;;
39864;SDS011;25538;48.392;9.976;2022-09-09T15:01:07;2.00;;;1.23;;
39864;SDS011;25538;48.392;9.976;2022-09-09T15:03:40;2.27;;;1.53;;
39864;SDS011;25538;48.392;9.976;2022-09-09T15:06:09;2.17;;;1.40;;
39864;SDS011;25538;48.392;9.976;2022-09-09T15:08:37;3.17;;;1.53;;
39864;SDS011;25538;48.392;9.976;2022-09-09T15:11:05;1.40;;;1.30;;
39864;SDS011;25538;48.392;9.976;2022-09-09T15:13:35;1.77;;;1.07;;
39864;SDS011;25538;48.392;9.976;2022-09-09T15:16:06;2.20;;;0.90;;
39864;SDS011;25538;48.392;9.976;2022-09-09T15:18:33;0.90;;;0.90;;
39864;SDS011;25538;48.392;9.976;2022-09-09T15:21:01;1.20;;;1.10;;
39864;SDS011;25538;48.392;9.976;2022-09-09T15:23:33;2.30;;;1.10;;
39864;SDS011;25538;48.392;9.976;2022-09-09T15:26:00;2.27;;;1.23;;
39864;SDS011;25538;48.392;9.976;2022-09-09T15:28:27;1.17;;;1.03;;
39864;SDS011;25538;48.392;9.976;2022-09-09T15:30:53;1.30;;;1.20;;
39864;SDS011;25538;48.392;9.976;2022-09-09T15:33:20;1.50;;;1.10;;
39864;SDS011;25538;48.392;9.976;2022-09-09T15:35:47;1.97;;;1.30;;
39864;SDS011;25538;48.392;9.976;2022-09-09T15:38:14;1.20;;;1.10;;
39864;SDS011;25538;48.392;9.976;2022-09-09T15:40:41;1.90;;;1.20;;
39864;SDS011;25538;48.392;9.976;2022-09-09T15:43:08;1.63;;;1.00;;
39864;SDS011;25538;48.392;9.976;2022-09-09T15:45:36;1.33;;;1.00;;
39864;SDS011;25538;48.392;9.976;2022-09-09T15:48:03;1.23;;;1.13;;
39864;SDS011;25538;48.392;9.976;2022-09-09T15:50:29;2.13;;;1.03;;
39864;SDS011;25538;48.392;9.976;2022-09-09T15:52:58;1.40;;;1.30;;
39864;SDS011;25538;48.392;9.976;2022-09-09T15:55:24;2.67;;;1.50;;
39864;SDS011;25538;48.392;9.976;2022-09-09T15:57:51;1.53;;;1.10;;
39864;SDS011;25538;48.392;9.976;2022-09-09T16:00:20;2.37;;;1.10;;
39864;SDS011;25538;48.392;9.976;2022-09-09T16:02:47;1.47;;;1.10;;
39864;SDS011;25538;48.392;9.976;2022-09-09T16:05:14;1.00;;;0.90;;
39864;SDS011;25538;48.392;9.976;2022-09-09T16:07:40;1.33;;;1.00;;
39864;SDS011;25538;48.392;9.976;2022-09-09T16:10:08;3.00;;;1.27;;
39864;SDS011;25538;48.392;9.976;2022-09-09T16:12:34;1.67;;;1.10;;
39864;SDS011;25538;48.392;9.976;2022-09-09T16:15:00;1.37;;;1.27;;
39864;SDS011;25538;48.392;9.976;2022-09-09T16:17:26;1.33;;;1.10;;
39864;SDS011;25538;48.392;9.976;2022-09-09T16:19:52;2.13;;;1.00;;
39864;SDS011;25538;48.392;9.976;2022-09-09T16:22:19;1.40;;;1.20;;
39864;SDS011;25538;48.392;9.976;2022-09-09T16:24:45;1.63;;;1.10;;
39864;SDS011;25538;48.392;9.976;2022-09-09T16:27:11;2.40;;;1.10;;
39864;SDS011;25538;48.392;9.976;2022-09-09T16:29:37;1.17;;;0.90;;
39864;SDS011;25538;48.392;9.976;2022-09-09T16:32:03;1.97;;;1.13;;
39864;SDS011;25538;48.392;9.976;2022-09-09T16:34:29;1.43;;;1.07;;
39864;SDS011;25538;48.392;9.976;2022-09-09T16:36:55;3.00;;;1.33;;
39864;SDS011;25538;48.392;9.976;2022-09-09T16:39:21;2.60;;;1.73;;
39864;SDS011;25538;48.392;9.976;2022-09-09T16:41:47;2.60;;;1.40;;
39864;SDS011;25538;48.392;9.976;2022-09-09T16:44:15;1.93;;;1.20;;
39864;SDS011;25538;48.392;9.976;2022-09-09T16:46:43;1.17;;;1.10;;
39864;SDS011;25538;48.392;9.976;2022-09-09T16:49:12;3.03;;;1.30;;
39864;SDS011;25538;48.392;9.976;2022-09-09T16:51:41;3.00;;;1.40;;
39864;SDS011;25538;48.392;9.976;2022-09-09T16:54:12;1.93;;;1.53;;
39864;SDS011;25538;48.392;9.976;2022-09-09T16:56:41;3.73;;;1.80;;
39864;SDS011;25538;48.392;9.976;2022-09-09T16:59:09;2.70;;;1.20;;
39864;SDS011;25538;48.392;9.976;2022-09-09T17:01:43;2.50;;;1.33;;
39864;SDS011;25538;48.392;9.976;2022-09-09T17:04:12;1.23;;;1.00;;
39864;SDS011;25538;48.392;9.976;2022-09-09T17:06:41;1.70;;;1.20;;
39864;SDS011;25538;48.392;9.976;2022-09-09T17:09:08;2.57;;;1.37;;
39864;SDS011;25538;48.392;9.976;2022-09-09T17:11:36;2.10;;;1.03;;
39864;SDS011;25538;48.392;9.976;2022-09-09T17:14:04;1.43;;;1.20;;
39864;SDS011;25538;48.392;9.976;2022-09-09T17:16:32;1.63;;;1.27;;
39864;SDS011;25538;48.392;9.976;2022-09-09T17:19:10;1.13;;;1.10;;
39864;SDS011;25538;48.392;9.976;2022-09-09T17:21:47;1.60;;;1.10;;
39864;SDS011;25538;48.392;9.976;2022-09-09T17:24:13;1.63;;;1.10;;
39864;SDS011;25538;48.392;9.976;2022-09-09T17:26:40;1.73;;;0.90;;
39864;SDS011;25538;48.392;9.976;2022-09-09T17:29:06;1.67;;;1.53;;
39864;SDS011;25538;48.392;9.976;2022-09-09T17:31:32;2.50;;;1.20;;
39864;SDS011;25538;48.392;9.976;2022-09-09T17:33:59;1.53;;;1.43;;
39864;SDS011;25538;48.392;9.976;2022-09-09T17:36:30;4.53;;;1.50;;
39864;SDS011;25538;48.392;9.976;2022-09-09T17:38:58;2.53;;;1.30;;
39864;SDS011;25538;48.392;9.976;2022-09-09T17:41:32;1.97;;;1.80;;
39864;SDS011;25538;48.392;9.976;2022-09-09T17:44:00;3.67;;;1.90;;
39864;SDS011;25538;48.392;9.976;2022-09-09T17:46:33;3.40;;;1.63;;
39864;SDS011;25538;48.392;9.976;2022-09-09T17:49:02;1.97;;;1.67;;
39864;SDS011;25538;48.392;9.976;2022-09-09T17:51:31;2.07;;;1.83;;